sensor_id;sensor_type;location;lat;lon;timestamp;P1;durP1;ratioP1;P2;durP2;ratioP2
7719;SDS011;3902;49.474;8.616;2023-03-01T00:01:09;8.97;;;8.07;;
7719;SDS011;3902;49.474;8.616;2023-03-01T00:03:36;10.33;;;8.77;;
7719;SDS011;3902;49.474;8.616;2023-03-01T00:06:02;8.73;;;7.70;;
7719;SDS011;3902;49.474;8.616;2023-03-01T00:08:29;8.90;;;7.47;;
7719;SDS011;3902;49.474;8.616;2023-03-01T00:13:49;9.97;;;8.00;;
7719;SDS011;3902;49.474;8.616;2023-03-01T00:16:18;8.90;;;7.90;;
7719;SDS011;3902;49.474;8.616;2023-03-01T00:18:45;9.47;;;8.03;;
7719;SDS011;3902;49.474;8.616;2023-03-01T00:21:11;9.70;;;8.70;;
7719;SDS011;3902;49.474;8.616;2023-03-01T00:23:37;9.50;;;8.23;;
7719;SDS011;3902;49.474;8.616;2023-03-01T00:26:05;10.13;;;8.50;;
7719;SDS011;3902;49.474;8.616;2023-03-01T00:28:33;8.90;;;8.00;;
7719;SDS011;3902;49.474;8.616;2023-03-01T00:31:09;9.37;;;8.37;;
7719;SDS011;3902;49.474;8.616;2023-03-01T00:33:36;9.87;;;8.87;;
7719;SDS011;3902;49.474;8.616;2023-03-01T00:36:02;10.03;;;7.77;;
7719;SDS011;3902;49.474;8.616;2023-03-01T00:38:29;9.90;;;8.30;;
7719;SDS011;3902;49.474;8.616;2023-03-01T00:40:55;9.33;;;8.20;;
7719;SDS011;3902;49.474;8.616;2023-03-01T00:43:20;9.57;;;8.47;;
7719;SDS011;3902;49.474;8.616;2023-03-01T00:45:46;9.80;;;8.60;;
7719;SDS011;3902;49.474;8.616;2023-03-01T00:48:12;9.70;;;8.40;;
7719;SDS011;3902;49.474;8.616;2023-03-01T00:50:37;9.60;;;8.10;;
7719;SDS011;3902;49.474;8.616;2023-03-01T00:53:02;9.80;;;8.13;;
7719;SDS011;3902;49.474;8.616;2023-03-01T00:55:29;10.13;;;9.10;;
7719;SDS011;3902;49.474;8.616;2023-03-01T00:57:55;9.43;;;8.53;;
7719;SDS011;3902;49.474;8.616;2023-03-01T01:00:20;10.50;;;9.40;;
7719;SDS011;3902;49.474;8.616;2023-03-01T01:02:46;9.43;;;8.30;;
7719;SDS011;3902;49.474;8.616;2023-03-01T01:05:12;9.20;;;8.30;;
7719;SDS011;3902;49.474;8.616;2023-03-01T01:07:38;10.23;;;9.10;;
7719;SDS011;3902;49.474;8.616;2023-03-01T01:10:04;10.57;;;9.47;;
7719;SDS011;3902;49.474;8.616;2023-03-01T01:12:30;10.97;;;9.87;;
7719;SDS011;3902;49.474;8.616;2023-03-01T01:14:57;10.20;;;9.20;;
7719;SDS011;3902;49.474;8.616;2023-03-01T01:17:22;11.03;;;9.93;;
7719;SDS011;3902;49.474;8.616;2023-03-01T01:19:48;11.70;;;10.13;;
7719;SDS011;3902;49.474;8.616;2023-03-01T01:22:13;11.13;;;9.93;;
7719;SDS011;3902;49.474;8.616;2023-03-01T01:24:39;10.63;;;9.53;;
7719;SDS011;3902;49.474;8.616;2023-03-01T01:27:04;12.23;;;10.93;;
7719;SDS011;3902;49.474;8.616;2023-03-01T01:29:32;10.73;;;9.60;;
7719;SDS011;3902;49.474;8.616;2023-03-01T01:31:57;10.10;;;9.00;;
7719;SDS011;3902;49.474;8.616;2023-03-01T01:34:23;12.83;;;10.90;;
7719;SDS011;3902;49.474;8.616;2023-03-01T01:36:49;11.10;;;9.93;;
7719;SDS011;3902;49.474;8.616;2023-03-01T01:39:17;12.80;;;11.50;;
7719;SDS011;3902;49.474;8.616;2023-03-01T01:41:43;11.70;;;10.50;;
7719;SDS011;3902;49.474;8.616;2023-03-01T01:44:13;12.03;;;10.77;;
7719;SDS011;3902;49.474;8.616;2023-03-01T01:46:51;11.87;;;9.77;;
7719;SDS011;3902;49.474;8.616;2023-03-01T01:52:11;13.40;;;10.57;;
7719;SDS011;3902;49.474;8.616;2023-03-01T01:54:53;11.63;;;10.50;;
7719;SDS011;3902;49.474;8.616;2023-03-01T01:57:41;11.93;;;10.43;;
7719;SDS011;3902;49.474;8.616;2023-03-01T02:00:11;13.33;;;10.30;;
7719;SDS011;3902;49.474;8.616;2023-03-01T02:02:40;12.60;;;10.67;;
7719;SDS011;3902;49.474;8.616;2023-03-01T02:05:12;10.67;;;9.67;;
7719;SDS011;3902;49.474;8.616;2023-03-01T02:07:43;10.33;;;9.30;;
7719;SDS011;3902;49.474;8.616;2023-03-01T02:10:10;12.23;;;10.30;;
7719;SDS011;3902;49.474;8.616;2023-03-01T02:12:36;11.63;;;10.40;;
7719;SDS011;3902;49.474;8.616;2023-03-01T02:15:03;10.57;;;9.43;;
7719;SDS011;3902;49.474;8.616;2023-03-01T02:17:29;12.50;;;10.77;;
7719;SDS011;3902;49.474;8.616;2023-03-01T02:22:33;12.27;;;11.07;;
7719;SDS011;3902;49.474;8.616;2023-03-01T02:30:20;13.77;;;11.83;;
7719;SDS011;3902;49.474;8.616;2023-03-01T02:32:47;12.50;;;11.20;;
7719;SDS011;3902;49.474;8.616;2023-03-01T02:35:13;13.03;;;10.63;;
7719;SDS011;3902;49.474;8.616;2023-03-01T02:37:41;12.33;;;10.90;;
7719;SDS011;3902;49.474;8.616;2023-03-01T02:40:08;13.03;;;11.63;;
7719;SDS011;3902;49.474;8.616;2023-03-01T02:42:40;12.33;;;10.90;;
7719;SDS011;3902;49.474;8.616;2023-03-01T02:45:16;11.23;;;10.13;;
7719;SDS011;3902;49.474;8.616;2023-03-01T02:47:42;12.93;;;11.53;;
7719;SDS011;3902;49.474;8.616;2023-03-01T02:50:13;13.47;;;10.57;;
7719;SDS011;3902;49.474;8.616;2023-03-01T02:53:08;11.93;;;10.67;;
7719;SDS011;3902;49.474;8.616;2023-03-01T02:55:37;12.23;;;10.53;;
7719;SDS011;3902;49.474;8.616;2023-03-01T02:58:03;12.20;;;10.93;;
7719;SDS011;3902;49.474;8.616;2023-03-01T03:00:31;12.93;;;11.53;;
7719;SDS011;3902;49.474;8.616;2023-03-01T03:03:00;12.03;;;10.73;;
7719;SDS011;3902;49.474;8.616;2023-03-01T03:05:27;12.20;;;11.00;;
7719;SDS011;3902;49.474;8.616;2023-03-01T03:07:54;13.00;;;11.40;;
7719;SDS011;3902;49.474;8.616;2023-03-01T03:10:24;12.77;;;11.37;;
7719;SDS011;3902;49.474;8.616;2023-03-01T03:12:55;12.80;;;11.40;;
7719;SDS011;3902;49.474;8.616;2023-03-01T03:15:32;14.10;;;12.27;;
7719;SDS011;3902;49.474;8.616;2023-03-01T03:18:01;12.20;;;11.00;;
7719;SDS011;3902;49.474;8.616;2023-03-01T03:20:28;13.17;;;11.80;;
7719;SDS011;3902;49.474;8.616;2023-03-01T03:22:55;13.50;;;11.37;;
7719;SDS011;3902;49.474;8.616;2023-03-01T03:25:23;12.83;;;11.37;;
7719;SDS011;3902;49.474;8.616;2023-03-01T03:27:51;13.17;;;11.87;;
7719;SDS011;3902;49.474;8.616;2023-03-01T03:30:30;14.20;;;12.10;;
7719;SDS011;3902;49.474;8.616;2023-03-01T03:32:57;12.70;;;11.40;;
7719;SDS011;3902;49.474;8.616;2023-03-01T03:35:24;13.80;;;11.80;;
7719;SDS011;3902;49.474;8.616;2023-03-01T03:37:53;13.20;;;11.80;;
7719;SDS011;3902;49.474;8.616;2023-03-01T03:40:41;12.73;;;11.43;;
7719;SDS011;3902;49.474;8.616;2023-03-01T03:43:15;11.93;;;10.70;;
7719;SDS011;3902;49.474;8.616;2023-03-01T03:45:46;12.17;;;10.87;;
7719;SDS011;3902;49.474;8.616;2023-03-01T03:48:12;12.90;;;11.50;;
7719;SDS011;3902;49.474;8.616;2023-03-01T03:50:38;13.83;;;12.33;;
7719;SDS011;3902;49.474;8.616;2023-03-01T03:53:09;14.50;;;12.67;;
7719;SDS011;3902;49.474;8.616;2023-03-01T03:55:36;14.37;;;11.97;;
7719;SDS011;3902;49.474;8.616;2023-03-01T03:58:04;14.00;;;12.10;;
7719;SDS011;3902;49.474;8.616;2023-03-01T04:00:34;12.10;;;10.90;;
7719;SDS011;3902;49.474;8.616;2023-03-01T04:03:01;13.57;;;11.60;;
7719;SDS011;3902;49.474;8.616;2023-03-01T04:05:27;12.93;;;11.63;;
7719;SDS011;3902;49.474;8.616;2023-03-01T04:07:53;15.07;;;13.07;;
7719;SDS011;3902;49.474;8.616;2023-03-01T04:10:26;14.70;;;13.17;;
7719;SDS011;3902;49.474;8.616;2023-03-01T04:12:53;14.17;;;12.43;;
7719;SDS011;3902;49.474;8.616;2023-03-01T04:15:21;15.10;;;12.33;;
7719;SDS011;3902;49.474;8.616;2023-03-01T04:17:49;13.83;;;12.17;;
7719;SDS011;3902;49.474;8.616;2023-03-01T04:20:17;12.93;;;11.53;;
7719;SDS011;3902;49.474;8.616;2023-03-01T04:22:50;14.30;;;12.83;;
7719;SDS011;3902;49.474;8.616;2023-03-01T04:25:17;14.27;;;12.30;;
7719;SDS011;3902;49.474;8.616;2023-03-01T04:27:42;14.17;;;12.60;;
7719;SDS011;3902;49.474;8.616;2023-03-01T04:30:08;13.13;;;11.73;;
7719;SDS011;3902;49.474;8.616;2023-03-01T04:32:35;13.30;;;12.00;;
7719;SDS011;3902;49.474;8.616;2023-03-01T04:35:00;14.00;;;11.60;;
7719;SDS011;3902;49.474;8.616;2023-03-01T04:37:26;13.30;;;11.90;;
7719;SDS011;3902;49.474;8.616;2023-03-01T04:39:52;12.83;;;11.53;;
7719;SDS011;3902;49.474;8.616;2023-03-01T04:42:17;12.77;;;11.43;;
7719;SDS011;3902;49.474;8.616;2023-03-01T04:44:43;12.67;;;11.23;;
7719;SDS011;3902;49.474;8.616;2023-03-01T04:47:09;13.33;;;11.93;;
7719;SDS011;3902;49.474;8.616;2023-03-01T04:49:35;14.70;;;12.67;;
7719;SDS011;3902;49.474;8.616;2023-03-01T04:52:01;13.67;;;11.77;;
7719;SDS011;3902;49.474;8.616;2023-03-01T04:54:27;13.93;;;12.07;;
7719;SDS011;3902;49.474;8.616;2023-03-01T04:56:54;15.23;;;13.63;;
7719;SDS011;3902;49.474;8.616;2023-03-01T04:59:20;16.30;;;12.90;;
7719;SDS011;3902;49.474;8.616;2023-03-01T05:01:47;14.07;;;11.73;;
7719;SDS011;3902;49.474;8.616;2023-03-01T05:04:16;14.60;;;12.40;;
7719;SDS011;3902;49.474;8.616;2023-03-01T05:06:42;13.87;;;12.33;;
7719;SDS011;3902;49.474;8.616;2023-03-01T05:09:07;14.87;;;13.27;;
7719;SDS011;3902;49.474;8.616;2023-03-01T05:11:33;14.53;;;12.77;;
7719;SDS011;3902;49.474;8.616;2023-03-01T05:14:09;14.27;;;12.83;;
7719;SDS011;3902;49.474;8.616;2023-03-01T05:16:35;14.97;;;12.60;;
7719;SDS011;3902;49.474;8.616;2023-03-01T05:19:02;15.07;;;13.33;;
7719;SDS011;3902;49.474;8.616;2023-03-01T05:21:36;16.20;;;13.30;;
7719;SDS011;3902;49.474;8.616;2023-03-01T05:24:22;14.77;;;12.80;;
7719;SDS011;3902;49.474;8.616;2023-03-01T05:26:48;16.03;;;14.43;;
7719;SDS011;3902;49.474;8.616;2023-03-01T05:29:14;14.40;;;12.90;;
7719;SDS011;3902;49.474;8.616;2023-03-01T05:31:40;17.63;;;14.00;;
7719;SDS011;3902;49.474;8.616;2023-03-01T05:34:05;16.23;;;13.30;;
7719;SDS011;3902;49.474;8.616;2023-03-01T05:36:31;17.20;;;14.13;;
7719;SDS011;3902;49.474;8.616;2023-03-01T05:38:56;14.83;;;13.20;;
7719;SDS011;3902;49.474;8.616;2023-03-01T05:41:22;15.27;;;13.77;;
7719;SDS011;3902;49.474;8.616;2023-03-01T05:43:47;14.43;;;12.93;;
7719;SDS011;3902;49.474;8.616;2023-03-01T05:46:13;15.63;;;13.40;;
7719;SDS011;3902;49.474;8.616;2023-03-01T05:48:40;12.20;;;11.00;;
7719;SDS011;3902;49.474;8.616;2023-03-01T05:51:05;17.40;;;14.20;;
7719;SDS011;3902;49.474;8.616;2023-03-01T05:53:31;15.17;;;13.03;;
7719;SDS011;3902;49.474;8.616;2023-03-01T05:55:56;14.97;;;13.40;;
7719;SDS011;3902;49.474;8.616;2023-03-01T05:58:22;13.93;;;12.40;;
7719;SDS011;3902;49.474;8.616;2023-03-01T06:00:49;14.40;;;12.90;;
7719;SDS011;3902;49.474;8.616;2023-03-01T06:03:15;16.47;;;14.77;;
7719;SDS011;3902;49.474;8.616;2023-03-01T06:05:42;15.97;;;14.20;;
7719;SDS011;3902;49.474;8.616;2023-03-01T06:08:09;14.53;;;12.63;;
7719;SDS011;3902;49.474;8.616;2023-03-01T06:10:35;15.00;;;13.40;;
7719;SDS011;3902;49.474;8.616;2023-03-01T06:13:01;14.67;;;13.17;;
7719;SDS011;3902;49.474;8.616;2023-03-01T06:15:27;14.67;;;13.10;;
7719;SDS011;3902;49.474;8.616;2023-03-01T06:17:53;15.63;;;13.87;;
7719;SDS011;3902;49.474;8.616;2023-03-01T06:20:22;15.37;;;13.50;;
7719;SDS011;3902;49.474;8.616;2023-03-01T06:22:49;14.43;;;12.93;;
7719;SDS011;3902;49.474;8.616;2023-03-01T06:25:17;15.73;;;13.00;;
7719;SDS011;3902;49.474;8.616;2023-03-01T06:27:44;15.37;;;13.67;;
7719;SDS011;3902;49.474;8.616;2023-03-01T06:30:11;16.27;;;13.40;;
7719;SDS011;3902;49.474;8.616;2023-03-01T06:32:39;15.17;;;13.60;;
7719;SDS011;3902;49.474;8.616;2023-03-01T06:35:08;14.53;;;13.03;;
7719;SDS011;3902;49.474;8.616;2023-03-01T06:37:38;15.27;;;13.67;;
7719;SDS011;3902;49.474;8.616;2023-03-01T06:40:05;17.17;;;13.20;;
7719;SDS011;3902;49.474;8.616;2023-03-01T06:42:33;17.13;;;15.13;;
7719;SDS011;3902;49.474;8.616;2023-03-01T06:44:59;15.97;;;14.27;;
7719;SDS011;3902;49.474;8.616;2023-03-01T06:47:25;17.03;;;14.80;;
7719;SDS011;3902;49.474;8.616;2023-03-01T06:49:50;16.33;;;13.60;;
7719;SDS011;3902;49.474;8.616;2023-03-01T06:52:16;14.83;;;13.30;;
7719;SDS011;3902;49.474;8.616;2023-03-01T06:54:41;14.30;;;12.80;;
7719;SDS011;3902;49.474;8.616;2023-03-01T06:57:07;15.80;;;13.53;;
7719;SDS011;3902;49.474;8.616;2023-03-01T06:59:32;15.23;;;13.63;;
7719;SDS011;3902;49.474;8.616;2023-03-01T07:01:58;17.97;;;13.80;;
7719;SDS011;3902;49.474;8.616;2023-03-01T07:04:23;15.27;;;13.67;;
7719;SDS011;3902;49.474;8.616;2023-03-01T07:06:49;14.90;;;13.30;;
7719;SDS011;3902;49.474;8.616;2023-03-01T07:09:20;16.27;;;14.50;;
7719;SDS011;3902;49.474;8.616;2023-03-01T07:11:48;15.80;;;14.10;;
7719;SDS011;3902;49.474;8.616;2023-03-01T07:14:15;15.13;;;13.60;;
7719;SDS011;3902;49.474;8.616;2023-03-01T07:16:40;15.73;;;13.93;;
7719;SDS011;3902;49.474;8.616;2023-03-01T07:19:06;15.53;;;13.90;;
7719;SDS011;3902;49.474;8.616;2023-03-01T07:21:32;15.77;;;12.80;;
7719;SDS011;3902;49.474;8.616;2023-03-01T07:23:57;15.07;;;13.40;;
7719;SDS011;3902;49.474;8.616;2023-03-01T07:26:23;16.17;;;14.47;;
7719;SDS011;3902;49.474;8.616;2023-03-01T07:28:48;17.27;;;13.80;;
7719;SDS011;3902;49.474;8.616;2023-03-01T07:31:14;14.60;;;13.10;;
7719;SDS011;3902;49.474;8.616;2023-03-01T07:33:39;15.80;;;13.73;;
7719;SDS011;3902;49.474;8.616;2023-03-01T07:36:05;15.70;;;13.30;;
7719;SDS011;3902;49.474;8.616;2023-03-01T07:38:31;14.50;;;12.50;;
7719;SDS011;3902;49.474;8.616;2023-03-01T07:40:58;14.70;;;13.23;;
7719;SDS011;3902;49.474;8.616;2023-03-01T07:43:25;16.17;;;13.27;;
7719;SDS011;3902;49.474;8.616;2023-03-01T07:45:51;14.43;;;12.87;;
7719;SDS011;3902;49.474;8.616;2023-03-01T07:48:16;14.37;;;12.87;;
7719;SDS011;3902;49.474;8.616;2023-03-01T07:50:42;16.33;;;13.57;;
7719;SDS011;3902;49.474;8.616;2023-03-01T07:53:08;17.30;;;15.27;;
7719;SDS011;3902;49.474;8.616;2023-03-01T07:55:34;17.27;;;14.47;;
7719;SDS011;3902;49.474;8.616;2023-03-01T07:58:00;16.60;;;14.87;;
7719;SDS011;3902;49.474;8.616;2023-03-01T08:00:25;16.90;;;15.10;;
7719;SDS011;3902;49.474;8.616;2023-03-01T08:02:51;18.03;;;16.13;;
7719;SDS011;3902;49.474;8.616;2023-03-01T08:05:16;15.73;;;13.70;;
7719;SDS011;3902;49.474;8.616;2023-03-01T08:07:42;15.50;;;13.57;;
7719;SDS011;3902;49.474;8.616;2023-03-01T08:10:07;15.97;;;14.03;;
7719;SDS011;3902;49.474;8.616;2023-03-01T08:12:34;14.37;;;12.97;;
7719;SDS011;3902;49.474;8.616;2023-03-01T08:14:59;14.73;;;13.23;;
7719;SDS011;3902;49.474;8.616;2023-03-01T08:17:25;14.43;;;12.90;;
7719;SDS011;3902;49.474;8.616;2023-03-01T08:19:50;13.97;;;12.20;;
7719;SDS011;3902;49.474;8.616;2023-03-01T08:22:16;14.53;;;13.03;;
7719;SDS011;3902;49.474;8.616;2023-03-01T08:24:41;14.00;;;12.03;;
7719;SDS011;3902;49.474;8.616;2023-03-01T08:27:07;15.23;;;12.40;;
7719;SDS011;3902;49.474;8.616;2023-03-01T08:29:33;14.40;;;12.90;;
7719;SDS011;3902;49.474;8.616;2023-03-01T08:31:58;14.57;;;13.07;;
7719;SDS011;3902;49.474;8.616;2023-03-01T08:34:24;14.77;;;13.27;;
7719;SDS011;3902;49.474;8.616;2023-03-01T08:36:50;13.87;;;12.40;;
7719;SDS011;3902;49.474;8.616;2023-03-01T08:39:17;13.20;;;11.80;;
7719;SDS011;3902;49.474;8.616;2023-03-01T08:41:44;13.80;;;12.40;;
7719;SDS011;3902;49.474;8.616;2023-03-01T08:44:11;13.90;;;12.50;;
7719;SDS011;3902;49.474;8.616;2023-03-01T08:46:39;16.63;;;13.40;;
7719;SDS011;3902;49.474;8.616;2023-03-01T08:49:06;15.23;;;13.10;;
7719;SDS011;3902;49.474;8.616;2023-03-01T08:51:33;13.47;;;12.07;;
7719;SDS011;3902;49.474;8.616;2023-03-01T08:54:05;13.63;;;12.07;;
7719;SDS011;3902;49.474;8.616;2023-03-01T08:56:34;13.47;;;12.07;;
7719;SDS011;3902;49.474;8.616;2023-03-01T08:59:00;13.80;;;12.40;;
7719;SDS011;3902;49.474;8.616;2023-03-01T09:01:25;14.50;;;13.00;;
7719;SDS011;3902;49.474;8.616;2023-03-01T09:03:51;14.50;;;13.10;;
7719;SDS011;3902;49.474;8.616;2023-03-01T09:06:17;12.97;;;11.77;;
7719;SDS011;3902;49.474;8.616;2023-03-01T09:08:43;13.90;;;12.33;;
7719;SDS011;3902;49.474;8.616;2023-03-01T09:11:11;13.50;;;12.10;;
7719;SDS011;3902;49.474;8.616;2023-03-01T09:13:38;13.87;;;11.83;;
7719;SDS011;3902;49.474;8.616;2023-03-01T09:16:05;14.20;;;12.70;;
7719;SDS011;3902;49.474;8.616;2023-03-01T09:18:32;12.83;;;11.50;;
7719;SDS011;3902;49.474;8.616;2023-03-01T09:21:08;13.27;;;11.97;;
7719;SDS011;3902;49.474;8.616;2023-03-01T09:23:43;14.70;;;13.10;;
7719;SDS011;3902;49.474;8.616;2023-03-01T09:26:12;16.97;;;13.00;;
7719;SDS011;3902;49.474;8.616;2023-03-01T09:28:43;14.23;;;12.10;;
7719;SDS011;3902;49.474;8.616;2023-03-01T09:31:10;13.23;;;11.83;;
7719;SDS011;3902;49.474;8.616;2023-03-01T09:33:39;13.83;;;11.93;;
7719;SDS011;3902;49.474;8.616;2023-03-01T09:36:07;16.00;;;12.80;;
7719;SDS011;3902;49.474;8.616;2023-03-01T09:38:35;14.77;;;13.03;;
7719;SDS011;3902;49.474;8.616;2023-03-01T09:41:01;13.70;;;12.30;;
7719;SDS011;3902;49.474;8.616;2023-03-01T09:43:30;16.70;;;13.37;;
7719;SDS011;3902;49.474;8.616;2023-03-01T09:46:18;14.47;;;12.73;;
7719;SDS011;3902;49.474;8.616;2023-03-01T09:48:50;14.60;;;13.00;;
7719;SDS011;3902;49.474;8.616;2023-03-01T09:53:54;14.40;;;12.90;;
7719;SDS011;3902;49.474;8.616;2023-03-01T09:56:24;14.53;;;12.80;;
7719;SDS011;3902;49.474;8.616;2023-03-01T10:01:38;14.50;;;13.07;;
7719;SDS011;3902;49.474;8.616;2023-03-01T10:09:59;14.40;;;12.57;;
7719;SDS011;3902;49.474;8.616;2023-03-01T10:12:33;12.97;;;11.63;;
7719;SDS011;3902;49.474;8.616;2023-03-01T10:15:12;13.60;;;12.20;;
7719;SDS011;3902;49.474;8.616;2023-03-01T10:17:47;12.80;;;11.47;;
7719;SDS011;3902;49.474;8.616;2023-03-01T10:20:22;14.63;;;12.50;;
7719;SDS011;3902;49.474;8.616;2023-03-01T10:22:52;14.70;;;11.47;;
7719;SDS011;3902;49.474;8.616;2023-03-01T10:27:52;13.40;;;12.03;;
7719;SDS011;3902;49.474;8.616;2023-03-01T10:30:22;13.40;;;12.00;;
7719;SDS011;3902;49.474;8.616;2023-03-01T10:33:06;12.73;;;11.27;;
7719;SDS011;3902;49.474;8.616;2023-03-01T10:35:45;12.30;;;11.00;;
7719;SDS011;3902;49.474;8.616;2023-03-01T10:38:12;13.80;;;12.27;;
7719;SDS011;3902;49.474;8.616;2023-03-01T10:43:26;13.60;;;12.07;;
7719;SDS011;3902;49.474;8.616;2023-03-01T10:45:57;10.90;;;9.80;;
7719;SDS011;3902;49.474;8.616;2023-03-01T10:48:24;16.03;;;12.83;;
7719;SDS011;3902;49.474;8.616;2023-03-01T10:53:29;12.47;;;11.17;;
7719;SDS011;3902;49.474;8.616;2023-03-01T10:58:31;14.00;;;12.10;;
7719;SDS011;3902;49.474;8.616;2023-03-01T11:01:05;13.40;;;12.00;;
7719;SDS011;3902;49.474;8.616;2023-03-01T11:06:36;13.63;;;12.10;;
7719;SDS011;3902;49.474;8.616;2023-03-01T11:09:13;12.80;;;11.50;;
7719;SDS011;3902;49.474;8.616;2023-03-01T11:11:39;14.33;;;12.80;;
7719;SDS011;3902;49.474;8.616;2023-03-01T11:14:20;15.63;;;13.10;;
7719;SDS011;3902;49.474;8.616;2023-03-01T11:17:10;15.20;;;12.63;;
7719;SDS011;3902;49.474;8.616;2023-03-01T11:19:40;17.10;;;13.50;;
7719;SDS011;3902;49.474;8.616;2023-03-01T11:22:12;13.87;;;12.43;;
7719;SDS011;3902;49.474;8.616;2023-03-01T11:24:47;14.30;;;12.20;;
7719;SDS011;3902;49.474;8.616;2023-03-01T11:27:26;12.67;;;11.40;;
7719;SDS011;3902;49.474;8.616;2023-03-01T11:29:57;11.37;;;9.90;;
7719;SDS011;3902;49.474;8.616;2023-03-01T11:32:29;10.77;;;9.63;;
7719;SDS011;3902;49.474;8.616;2023-03-01T11:35:13;10.70;;;8.60;;
7719;SDS011;3902;49.474;8.616;2023-03-01T11:37:52;9.13;;;8.23;;
7719;SDS011;3902;49.474;8.616;2023-03-01T11:43:06;8.37;;;7.47;;
7719;SDS011;3902;49.474;8.616;2023-03-01T11:45:47;9.47;;;8.17;;
7719;SDS011;3902;49.474;8.616;2023-03-01T11:51:05;8.53;;;7.23;;
7719;SDS011;3902;49.474;8.616;2023-03-01T11:56:28;9.07;;;7.30;;
7719;SDS011;3902;49.474;8.616;2023-03-01T12:02:00;7.13;;;6.37;;
7719;SDS011;3902;49.474;8.616;2023-03-01T12:04:54;10.00;;;8.97;;
7719;SDS011;3902;49.474;8.616;2023-03-01T12:07:56;8.43;;;7.63;;
7719;SDS011;3902;49.474;8.616;2023-03-01T12:25:17;8.50;;;7.60;;
7719;SDS011;3902;49.474;8.616;2023-03-01T12:38:42;8.30;;;7.23;;
7719;SDS011;3902;49.474;8.616;2023-03-01T12:44:44;8.87;;;7.97;;
7719;SDS011;3902;49.474;8.616;2023-03-01T12:47:07;8.53;;;7.63;;
7719;SDS011;3902;49.474;8.616;2023-03-01T12:50:04;8.13;;;7.33;;
7719;SDS011;3902;49.474;8.616;2023-03-01T12:52:56;7.47;;;6.40;;
7719;SDS011;3902;49.474;8.616;2023-03-01T12:55:38;7.80;;;7.00;;
7719;SDS011;3902;49.474;8.616;2023-03-01T12:58:08;9.53;;;7.97;;
7719;SDS011;3902;49.474;8.616;2023-03-01T13:06:32;6.80;;;6.10;;
7719;SDS011;3902;49.474;8.616;2023-03-01T13:09:19;7.37;;;6.60;;
7719;SDS011;3902;49.474;8.616;2023-03-01T13:17:46;6.60;;;6.00;;
7719;SDS011;3902;49.474;8.616;2023-03-01T13:20:13;6.07;;;5.47;;
7719;SDS011;3902;49.474;8.616;2023-03-01T13:22:41;6.40;;;5.80;;
7719;SDS011;3902;49.474;8.616;2023-03-01T13:25:17;6.80;;;6.10;;
7719;SDS011;3902;49.474;8.616;2023-03-01T13:27:45;6.93;;;6.23;;
7719;SDS011;3902;49.474;8.616;2023-03-01T13:35:55;6.10;;;5.57;;
7719;SDS011;3902;49.474;8.616;2023-03-01T13:41:09;6.80;;;6.20;;
7719;SDS011;3902;49.474;8.616;2023-03-01T13:43:36;7.00;;;6.30;;
7719;SDS011;3902;49.474;8.616;2023-03-01T13:46:07;7.20;;;6.53;;
7719;SDS011;3902;49.474;8.616;2023-03-01T13:48:43;11.30;;;6.07;;
7719;SDS011;3902;49.474;8.616;2023-03-01T13:51:12;8.33;;;6.53;;
7719;SDS011;3902;49.474;8.616;2023-03-01T13:53:45;6.10;;;5.50;;
7719;SDS011;3902;49.474;8.616;2023-03-01T13:56:13;6.53;;;5.80;;
7719;SDS011;3902;49.474;8.616;2023-03-01T13:58:56;7.00;;;6.10;;
7719;SDS011;3902;49.474;8.616;2023-03-01T14:01:30;7.90;;;7.00;;
7719;SDS011;3902;49.474;8.616;2023-03-01T14:03:58;7.97;;;7.13;;
7719;SDS011;3902;49.474;8.616;2023-03-01T14:06:26;7.87;;;7.17;;
7719;SDS011;3902;49.474;8.616;2023-03-01T14:09:04;8.10;;;6.07;;
7719;SDS011;3902;49.474;8.616;2023-03-01T14:17:41;7.03;;;6.33;;
7719;SDS011;3902;49.474;8.616;2023-03-01T14:22:48;6.50;;;5.90;;
7719;SDS011;3902;49.474;8.616;2023-03-01T14:25:30;6.20;;;5.50;;
7719;SDS011;3902;49.474;8.616;2023-03-01T14:27:59;6.33;;;5.73;;
7719;SDS011;3902;49.474;8.616;2023-03-01T14:30:47;6.97;;;6.30;;
7719;SDS011;3902;49.474;8.616;2023-03-01T14:35:59;5.53;;;5.03;;
7719;SDS011;3902;49.474;8.616;2023-03-01T14:38:30;7.87;;;6.40;;
7719;SDS011;3902;49.474;8.616;2023-03-01T14:41:09;5.80;;;5.20;;
7719;SDS011;3902;49.474;8.616;2023-03-01T14:43:47;5.70;;;5.17;;
7719;SDS011;3902;49.474;8.616;2023-03-01T14:46:20;6.33;;;5.60;;
7719;SDS011;3902;49.474;8.616;2023-03-01T14:48:53;6.30;;;5.70;;
7719;SDS011;3902;49.474;8.616;2023-03-01T14:51:23;6.60;;;6.00;;
7719;SDS011;3902;49.474;8.616;2023-03-01T14:53:49;6.00;;;5.40;;
7719;SDS011;3902;49.474;8.616;2023-03-01T14:56:16;5.43;;;4.93;;
7719;SDS011;3902;49.474;8.616;2023-03-01T14:58:45;7.13;;;6.43;;
7719;SDS011;3902;49.474;8.616;2023-03-01T15:01:15;6.03;;;5.43;;
7719;SDS011;3902;49.474;8.616;2023-03-01T15:03:42;6.90;;;6.17;;
7719;SDS011;3902;49.474;8.616;2023-03-01T15:06:22;5.73;;;5.20;;
7719;SDS011;3902;49.474;8.616;2023-03-01T15:08:49;6.47;;;5.77;;
7719;SDS011;3902;49.474;8.616;2023-03-01T15:13:52;6.30;;;5.17;;
7719;SDS011;3902;49.474;8.616;2023-03-01T15:16:19;6.57;;;5.50;;
7719;SDS011;3902;49.474;8.616;2023-03-01T15:18:55;7.73;;;5.83;;
7719;SDS011;3902;49.474;8.616;2023-03-01T15:21:24;8.47;;;6.30;;
7719;SDS011;3902;49.474;8.616;2023-03-01T15:24:34;5.80;;;5.20;;
7719;SDS011;3902;49.474;8.616;2023-03-01T15:26:50;6.83;;;6.13;;
7719;SDS011;3902;49.474;8.616;2023-03-01T15:29:23;6.93;;;6.23;;
7719;SDS011;3902;49.474;8.616;2023-03-01T15:31:59;6.93;;;6.20;;
7719;SDS011;3902;49.474;8.616;2023-03-01T15:34:30;6.90;;;6.20;;
7719;SDS011;3902;49.474;8.616;2023-03-01T15:37:01;7.57;;;6.77;;
7719;SDS011;3902;49.474;8.616;2023-03-01T15:39:38;7.93;;;6.90;;
7719;SDS011;3902;49.474;8.616;2023-03-01T15:42:09;10.43;;;6.60;;
7719;SDS011;3902;49.474;8.616;2023-03-01T15:45:08;7.43;;;6.70;;
7719;SDS011;3902;49.474;8.616;2023-03-01T15:48:04;7.87;;;7.07;;
7719;SDS011;3902;49.474;8.616;2023-03-01T15:50:40;8.50;;;7.03;;
7719;SDS011;3902;49.474;8.616;2023-03-01T15:53:06;7.50;;;6.83;;
7719;SDS011;3902;49.474;8.616;2023-03-01T15:55:36;8.83;;;7.80;;
7719;SDS011;3902;49.474;8.616;2023-03-01T15:58:15;9.30;;;7.00;;
7719;SDS011;3902;49.474;8.616;2023-03-01T16:00:46;8.57;;;7.67;;
7719;SDS011;3902;49.474;8.616;2023-03-01T16:03:14;7.80;;;7.10;;
7719;SDS011;3902;49.474;8.616;2023-03-01T16:05:46;8.50;;;7.70;;
7719;SDS011;3902;49.474;8.616;2023-03-01T16:08:12;8.00;;;7.20;;
7719;SDS011;3902;49.474;8.616;2023-03-01T16:10:38;9.30;;;6.80;;
7719;SDS011;3902;49.474;8.616;2023-03-01T16:13:04;9.80;;;7.73;;
7719;SDS011;3902;49.474;8.616;2023-03-01T16:15:31;8.40;;;7.53;;
7719;SDS011;3902;49.474;8.616;2023-03-01T16:18:01;9.03;;;7.87;;
7719;SDS011;3902;49.474;8.616;2023-03-01T16:20:28;9.60;;;8.30;;
7719;SDS011;3902;49.474;8.616;2023-03-01T16:22:55;8.27;;;7.47;;
7719;SDS011;3902;49.474;8.616;2023-03-01T16:25:26;8.47;;;7.53;;
7719;SDS011;3902;49.474;8.616;2023-03-01T16:27:52;8.43;;;7.63;;
7719;SDS011;3902;49.474;8.616;2023-03-01T16:30:19;8.10;;;7.33;;
7719;SDS011;3902;49.474;8.616;2023-03-01T16:32:46;8.90;;;8.00;;
7719;SDS011;3902;49.474;8.616;2023-03-01T16:35:14;11.93;;;9.70;;
7719;SDS011;3902;49.474;8.616;2023-03-01T16:37:42;10.63;;;7.87;;
7719;SDS011;3902;49.474;8.616;2023-03-01T16:40:15;9.40;;;8.40;;
7719;SDS011;3902;49.474;8.616;2023-03-01T16:42:42;8.43;;;7.60;;
7719;SDS011;3902;49.474;8.616;2023-03-01T16:45:08;8.80;;;7.90;;
7719;SDS011;3902;49.474;8.616;2023-03-01T16:47:34;8.70;;;7.90;;
7719;SDS011;3902;49.474;8.616;2023-03-01T16:50:00;7.97;;;7.03;;
7719;SDS011;3902;49.474;8.616;2023-03-01T16:52:26;9.87;;;8.10;;
7719;SDS011;3902;49.474;8.616;2023-03-01T16:54:51;9.20;;;8.30;;
7719;SDS011;3902;49.474;8.616;2023-03-01T16:57:18;9.17;;;8.20;;
7719;SDS011;3902;49.474;8.616;2023-03-01T16:59:43;8.60;;;7.80;;
7719;SDS011;3902;49.474;8.616;2023-03-01T17:02:10;9.50;;;8.47;;
7719;SDS011;3902;49.474;8.616;2023-03-01T17:04:37;10.00;;;9.00;;